sensor_id;sensor_type;location;lat;lon;timestamp;pressure;altitude;pressure_sealevel;temperature;humidity
76331;BME280;65148;51.912;15.570;2023-05-07T00:07:33;102081.13;;;8.96;100.00
76331;BME280;65148;51.912;15.570;2023-05-07T00:22:35;102079.32;;;9.01;100.00
76331;BME280;65148;51.912;15.570;2023-05-07T00:37:36;102070.59;;;8.99;100.00
76331;BME280;65148;51.912;15.570;2023-05-07T00:52:57;102075.88;;;8.77;100.00
76331;BME280;65148;51.912;15.570;2023-05-07T01:07:59;102084.29;;;8.76;100.00
76331;BME280;65148;51.912;15.570;2023-05-07T01:23:03;102088.27;;;8.85;100.00
76331;BME280;65148;51.912;15.570;2023-05-07T01:38:07;102092.28;;;8.83;100.00
76331;BME280;65148;51.912;15.570;2023-05-07T01:53:23;102090.20;;;8.73;100.00
76331;BME280;65148;51.912;15.570;2023-05-07T02:08:24;102097.36;;;8.79;100.00
76331;BME280;65148;51.912;15.570;2023-05-07T02:23:26;102106.68;;;8.83;100.00
76331;BME280;65148;51.912;15.570;2023-05-07T02:38:28;102123.32;;;8.87;100.00
76331;BME280;65148;51.912;15.570;2023-05-07T02:53:48;102133.63;;;8.73;100.00
76331;BME280;65148;51.912;15.570;2023-05-07T03:08:50;102143.66;;;8.72;100.00
76331;BME280;65148;51.912;15.570;2023-05-07T03:23:52;102159.82;;;8.67;100.00
76331;BME280;65148;51.912;15.570;2023-05-07T03:38:54;102171.90;;;8.48;100.00
76331;BME280;65148;51.912;15.570;2023-05-07T03:54:13;102179.81;;;8.38;100.00
76331;BME280;65148;51.912;15.570;2023-05-07T04:09:15;102203.05;;;8.34;100.00
76331;BME280;65148;51.912;15.570;2023-05-07T04:24:17;102204.60;;;8.41;100.00
76331;BME280;65148;51.912;15.570;2023-05-07T04:39:19;102219.33;;;8.46;100.00
76331;BME280;65148;51.912;15.570;2023-05-07T04:54:38;102224.98;;;8.56;100.00
76331;BME280;65148;51.912;15.570;2023-05-07T05:09:40;102238.91;;;8.71;100.00
76331;BME280;65148;51.912;15.570;2023-05-07T05:24:42;102228.98;;;8.88;100.00
76331;BME280;65148;51.912;15.570;2023-05-07T05:39:44;102241.00;;;9.04;100.00
76331;BME280;65148;51.912;15.570;2023-05-07T05:55:04;102259.02;;;9.22;100.00
76331;BME280;65148;51.912;15.570;2023-05-07T06:10:07;102270.70;;;9.34;100.00
76331;BME280;65148;51.912;15.570;2023-05-07T06:25:09;102291.73;;;9.38;100.00
76331;BME280;65148;51.912;15.570;2023-05-07T06:40:11;102308.38;;;9.30;100.00
76331;BME280;65148;51.912;15.570;2023-05-07T06:55:28;102311.08;;;9.42;100.00
76331;BME280;65148;51.912;15.570;2023-05-07T07:10:30;102323.51;;;9.78;100.00
76331;BME280;65148;51.912;15.570;2023-05-07T07:25:32;102338.71;;;9.91;100.00
76331;BME280;65148;51.912;15.570;2023-05-07T07:40:37;102341.24;;;9.80;100.00
76331;BME280;65148;51.912;15.570;2023-05-07T07:55:54;102349.74;;;10.12;100.00
76331;BME280;65148;51.912;15.570;2023-05-07T08:10:56;102373.28;;;10.18;100.00
76331;BME280;65148;51.912;15.570;2023-05-07T08:25:57;102389.49;;;10.13;100.00
76331;BME280;65148;51.912;15.570;2023-05-07T08:41:00;102396.59;;;10.14;100.00
76331;BME280;65148;51.912;15.570;2023-05-07T08:56:19;102398.90;;;10.34;100.00
76331;BME280;65148;51.912;15.570;2023-05-07T09:11:22;102394.57;;;11.55;100.00
76331;BME280;65148;51.912;15.570;2023-05-07T09:30:34;102404.28;;;11.68;100.00
76331;BME280;65148;51.912;15.570;2023-05-07T09:45:36;102407.09;;;11.34;100.00
76331;BME280;65148;51.912;15.570;2023-05-07T10:00:41;102418.14;;;11.83;100.00
76331;BME280;65148;51.912;15.570;2023-05-07T10:15:58;102421.50;;;11.90;99.51
76331;BME280;65148;51.912;15.570;2023-05-07T10:46:19;102416.65;;;12.73;92.84
76331;BME280;65148;51.912;15.570;2023-05-07T11:17:06;102445.69;;;12.52;92.28
76331;BME280;65148;51.912;15.570;2023-05-07T11:32:04;102441.45;;;12.39;95.00
76331;BME280;65148;51.912;15.570;2023-05-07T11:47:20;102446.74;;;12.78;94.60
76331;BME280;65148;51.912;15.570;2023-05-07T12:02:23;102462.61;;;13.08;86.99
76331;BME280;65148;51.912;15.570;2023-05-07T12:17:29;102450.02;;;13.39;75.13
76331;BME280;65148;51.912;15.570;2023-05-07T12:32:31;102455.29;;;14.08;70.09
76331;BME280;65148;51.912;15.570;2023-05-07T12:47:49;102451.65;;;14.59;67.68
76331;BME280;65148;51.912;15.570;2023-05-07T13:02:54;102471.55;;;14.35;67.47
76331;BME280;65148;51.912;15.570;2023-05-07T13:17:57;102465.70;;;14.06;68.76
76331;BME280;65148;51.912;15.570;2023-05-07T13:32:59;102456.05;;;15.11;64.70
76331;BME280;65148;51.912;15.570;2023-05-07T13:48:12;102452.75;;;14.69;64.89
76331;BME280;65148;51.912;15.570;2023-05-07T14:03:15;102457.16;;;13.97;65.78
76331;BME280;65148;51.912;15.570;2023-05-07T14:18:20;102450.72;;;14.39;64.79
76331;BME280;65148;51.912;15.570;2023-05-07T14:33:21;102457.81;;;14.24;66.40
76331;BME280;65148;51.912;15.570;2023-05-07T14:48:36;102476.32;;;13.92;68.35
76331;BME280;65148;51.912;15.570;2023-05-07T15:03:39;102476.84;;;13.89;66.48
76331;BME280;65148;51.912;15.570;2023-05-07T15:18:42;102473.40;;;14.14;64.82
76331;BME280;65148;51.912;15.570;2023-05-07T15:33:43;102495.10;;;13.73;68.25
76331;BME280;65148;51.912;15.570;2023-05-07T15:49:02;102498.80;;;13.20;68.15
76331;BME280;65148;51.912;15.570;2023-05-07T16:04:07;102495.30;;;13.25;68.83
76331;BME280;65148;51.912;15.570;2023-05-07T16:19:09;102489.52;;;13.58;69.07
76331;BME280;65148;51.912;15.570;2023-05-07T16:34:11;102491.76;;;13.66;65.06
76331;BME280;65148;51.912;15.570;2023-05-07T16:49:25;102494.58;;;13.07;66.12
76331;BME280;65148;51.912;15.570;2023-05-07T17:04:28;102508.68;;;12.94;67.76
76331;BME280;65148;51.912;15.570;2023-05-07T17:19:32;102516.82;;;12.62;69.59
76331;BME280;65148;51.912;15.570;2023-05-07T17:34:35;102531.34;;;12.41;70.45
76331;BME280;65148;51.912;15.570;2023-05-07T17:49:50;102540.15;;;12.26;72.09
76331;BME280;65148;51.912;15.570;2023-05-07T18:04:52;102556.57;;;11.88;72.68
76331;BME280;65148;51.912;15.570;2023-05-07T18:19:54;102569.79;;;11.62;74.42
76331;BME280;65148;51.912;15.570;2023-05-07T18:34:56;102570.94;;;11.33;76.16
76331;BME280;65148;51.912;15.570;2023-05-07T18:50:15;102594.79;;;10.81;79.65
76331;BME280;65148;51.912;15.570;2023-05-07T19:05:16;102605.15;;;10.55;80.70
76331;BME280;65148;51.912;15.570;2023-05-07T19:20:19;102623.07;;;10.05;83.85
76331;BME280;65148;51.912;15.570;2023-05-07T19:35:20;102626.20;;;9.55;87.41
76331;BME280;65148;51.912;15.570;2023-05-07T19:50:40;102640.11;;;9.05;92.07
76331;BME280;65148;51.912;15.570;2023-05-07T20:05:45;102640.28;;;8.92;93.34
76331;BME280;65148;51.912;15.570;2023-05-07T20:20:48;102651.04;;;8.99;92.39
76331;BME280;65148;51.912;15.570;2023-05-07T20:35:50;102663.28;;;8.90;91.59
76331;BME280;65148;51.912;15.570;2023-05-07T20:51:05;102676.27;;;8.69;92.25
76331;BME280;65148;51.912;15.570;2023-05-07T21:06:10;102692.34;;;8.53;92.26
76331;BME280;65148;51.912;15.570;2023-05-07T21:21:13;102698.89;;;8.20;93.76
76331;BME280;65148;51.912;15.570;2023-05-07T21:36:16;102689.38;;;7.86;96.70
76331;BME280;65148;51.912;15.570;2023-05-07T21:51:32;102702.54;;;7.51;99.99
76331;BME280;65148;51.912;15.570;2023-05-07T22:06:35;102705.32;;;7.38;98.91
76331;BME280;65148;51.912;15.570;2023-05-07T22:21:37;102712.29;;;7.21;100.00
76331;BME280;65148;51.912;15.570;2023-05-07T22:36:38;102711.84;;;7.30;100.00
76331;BME280;65148;51.912;15.570;2023-05-07T22:51:57;102711.35;;;7.02;100.00
76331;BME280;65148;51.912;15.570;2023-05-07T23:06:59;102698.70;;;6.83;100.00
76331;BME280;65148;51.912;15.570;2023-05-07T23:22:01;102694.20;;;6.50;100.00
76331;BME280;65148;51.912;15.570;2023-05-07T23:37:03;102694.02;;;6.39;100.00
76331;BME280;65148;51.912;15.570;2023-05-07T23:52:23;102682.44;;;6.05;100.00
